Time;durP1;ratioP1;P1;durP2;ratioP2;P2;SDS_P1;SDS_P2;PMS_P1;PMS_P2;Temp;Humidity;BMP_temperature;BMP_pressure;BME280_temperature;BME280_humidity;BME280_pressure;Samples;Min_cycle;Max_cycle;Signal;HPM_P1;HPM_P2
2021/05/27 00:09:27;;;;;;;14.47;7.73;;;;;;;11.36;62.97;98302.69;512699;1101;103166;-42
2021/05/27 00:19:31;;;;;;;16.55;8.95;;;;;;;11.23;64.09;98309.10;512516;1101;103168;-43
2021/05/27 00:29:36;;;;;;;14.53;7.97;;;;;;;11.45;64.59;98322.41;512588;1101;104640;-41
2021/05/27 00:39:40;;;;;;;13.77;7.20;;;;;;;11.61;64.31;98313.64;512586;1096;103985;-43
2021/05/27 00:49:44;;;;;;;9.37;6.30;;;;;;;11.62;64.40;98314.45;512508;1101;103638;-42
2021/05/27 00:59:48;;;;;;;9.57;6.47;;;;;;;11.45;64.32;98306.52;512525;1101;103192;-43
2021/05/27 01:09:53;;;;;;;10.83;5.73;;;;;;;11.13;64.76;98300.22;512458;1096;104045;-42
2021/05/27 01:19:57;;;;;;;12.67;6.20;;;;;;;10.86;65.04;98297.38;512650;1101;103099;-41
2021/05/27 01:30:02;;;;;;;10.27;5.37;;;;;;;11.08;65.38;98306.20;512792;1101;103824;-42
2021/05/27 01:40:08;;;;;;;8.50;5.33;;;;;;;11.20;65.45;98295.55;513028;1096;103464;-42
2021/05/27 02:12:36;;;;;;;13.00;5.20;;;;;;;11.15;65.78;98303.42;512604;1101;103246;-42
2021/05/27 02:22:40;;;;;;;9.87;4.47;;;;;;;11.23;65.58;98305.66;512625;1101;103557;-44
2021/05/27 02:32:44;;;;;;;8.23;4.53;;;;;;;11.41;65.95;98292.17;512703;1101;103161;-43
2021/05/27 02:42:48;;;;;;;9.80;4.80;;;;;;;11.46;65.94;98296.73;512720;1101;103186;-42
2021/05/27 02:52:52;;;;;;;6.70;4.63;;;;;;;11.46;66.00;98302.83;512554;1100;103346;-41
2021/05/27 03:02:57;;;;;;;6.83;3.63;;;;;;;11.55;65.61;98314.59;512565;1100;103189;-42
2021/05/27 03:13:01;;;;;;;6.90;4.45;;;;;;;11.64;65.87;98312.35;512629;1093;103184;-42
2021/05/27 03:23:06;;;;;;;5.23;3.67;;;;;;;11.74;65.46;98327.56;512610;1100;103563;-42
2021/05/27 03:33:11;;;;;;;7.97;2.97;;;;;;;11.78;65.66;98348.05;512614;1100;104584;-43
2021/05/27 03:43:16;;;;;;;3.50;2.35;;;;;;;12.16;65.25;98354.39;512550;1093;103773;-42
2021/05/27 03:53:21;;;;;;;3.30;2.00;;;;;;;14.72;64.77;98363.00;512758;1101;103166;-42
2021/05/27 04:07:04;;;;;;;3.57;2.03;;;;;;;17.70;62.34;98358.80;512713;1101;103231;-43
2021/05/27 04:13:52;;;;;;;2.90;2.15;;;;;;;18.87;58.89;98368.14;512455;1101;103548;-41
2021/05/27 04:23:56;;;;;;;2.97;2.03;;;;;;;17.92;58.71;98358.31;512548;1101;103550;-42
2021/05/27 04:34:00;;;;;;;5.27;1.60;;;;;;;20.11;57.44;98369.33;512440;1101;103203;-42
2021/05/27 04:44:04;;;;;;;2.03;1.73;;;;;;;21.19;54.77;98370.55;512638;1101;103228;-43
2021/05/27 04:54:08;;;;;;;2.27;1.20;;;;;;;21.95;53.44;98377.52;512768;1100;103525;-39
2021/05/27 05:04:12;;;;;;;2.10;1.30;;;;;;;21.48;50.41;98395.14;512535;1101;103186;-41
2021/05/27 05:14:16;;;;;;;1.20;1.07;;;;;;;21.46;50.08;98389.27;512598;1101;103160;-41
2021/05/27 05:24:21;;;;;;;2.25;1.10;;;;;;;21.51;50.38;98394.52;512599;1101;103167;-40
2021/05/27 05:34:25;;;;;;;2.10;1.27;;;;;;;21.09;48.54;98420.77;512705;1101;103168;-43
2021/05/27 05:44:29;;;;;;;1.80;1.30;;;;;;;20.45;48.79;98421.86;512544;1101;103163;-41
2021/05/27 05:54:33;;;;;;;3.17;1.43;;;;;;;20.11;47.55;98431.07;512955;1101;103164;-41
2021/05/27 06:04:38;;;;;;;4.65;1.75;;;;;;;19.85;47.48;98443.31;512717;1101;103163;-41
2021/05/27 06:14:42;;;;;;;2.37;1.20;;;;;;;19.52;47.96;98448.66;512667;1101;103165;-42
2021/05/27 06:24:46;;;;;;;3.03;1.63;;;;;;;18.02;48.45;98459.08;512690;1093;103181;-41
2021/05/27 06:34:50;;;;;;;4.60;2.07;;;;;;;18.16;50.12;98449.30;512524;1093;103716;-41
2021/05/27 06:44:54;;;;;;;6.10;1.60;;;;;;;19.28;49.22;98455.99;512633;1093;103553;-41
2021/05/27 06:54:57;;;;;;;4.00;1.40;;;;;;;17.45;48.98;98476.61;512667;1101;103198;-41
2021/05/27 07:05:01;;;;;;;3.23;1.93;;;;;;;16.89;49.64;98479.60;512782;1101;103452;-41
2021/05/27 07:15:06;;;;;;;5.20;2.60;;;;;;;18.37;50.49;98474.77;512747;1101;104662;-40
2021/05/27 07:25:12;;;;;;;2.83;1.50;;;;;;;19.32;49.29;98481.13;512673;1101;103474;-40
2021/05/27 07:35:16;;;;;;;2.07;1.10;;;;;;;19.49;47.36;98485.98;512748;1101;103621;-42
2021/05/27 07:45:21;;;;;;;3.00;1.10;;;;;;;19.43;45.58;98479.91;512588;1093;103274;-40
2021/05/27 07:55:28;;;;;;;2.80;1.10;;;;;;;18.91;47.13;98494.27;512615;1101;103361;-41
2021/05/27 08:05:32;;;;;;;1.33;0.90;;;;;;;20.48;47.53;98496.45;512507;1101;103113;-41
2021/05/27 08:15:36;;;;;;;3.67;1.20;;;;;;;19.57;46.02;98504.13;512645;1093;103647;-41
2021/05/27 08:25:40;;;;;;;0.90;0.90;;;;;;;19.36;45.74;98508.16;512486;1101;103132;-41
2021/05/27 08:35:45;;;;;;;2.70;1.45;;;;;;;19.03;45.93;98512.63;512515;1101;103164;-39
2021/05/27 08:45:50;;;;;;;4.27;1.30;;;;;;;18.45;46.91;98507.34;512666;1101;103474;-42
2021/05/27 08:55:55;;;;;;;1.13;0.80;;;;;;;19.55;45.67;98504.42;512649;1101;103554;-41
2021/05/27 09:05:59;;;;;;;2.23;0.80;;;;;;;19.99;44.36;98519.30;512476;1093;103535;-42
2021/05/27 09:16:10;;;;;;;1.13;0.80;;;;;;;20.99;43.99;98498.93;512661;1093;103161;-40
2021/05/27 09:26:17;;;;;;;0.60;0.55;;;;;;;20.56;42.90;98530.67;512646;1101;103156;-42
2021/05/27 09:36:22;;;;;;;1.57;0.90;;;;;;;20.41;43.17;98509.48;512557;1101;103477;-42
2021/05/27 09:46:27;;;;;;;1.57;0.80;;;;;;;19.46;42.64;98532.95;512651;1101;103195;-41
2021/05/27 09:56:36;;;;;;;2.35;0.85;;;;;;;20.29;41.90;98530.61;512445;1101;103206;-42
2021/05/27 10:06:45;;;;;;;1.67;0.80;;;;;;;20.61;41.99;98532.50;512622;1101;103202;-40
2021/05/27 10:16:49;;;;;;;3.43;0.90;;;;;;;19.90;41.51;98537.17;512629;1101;103495;-41
2021/05/27 10:26:53;;;;;;;1.33;0.60;;;;;;;19.51;42.40;98526.72;512605;1101;104711;-41
2021/05/27 10:37:05;;;;;;;2.50;1.10;;;;;;;20.11;41.97;98527.70;512565;1100;103165;-41
2021/05/27 10:47:15;;;;;;;4.67;1.40;;;;;;;20.16;41.96;98524.92;512731;1101;103563;-41
2021/05/27 10:57:50;;;;;;;11.83;2.17;;;;;;;19.96;41.87;98540.56;512432;1101;104550;-41
2021/05/27 11:18:38;;;;;;;2.60;1.10;;;;;;;19.41;42.80;98540.28;512553;1101;103166;-41
2021/05/27 11:28:42;;;;;;;8.47;1.00;;;;;;;19.57;43.22;98528.27;512735;1093;103532;-40
2021/05/27 11:38:47;;;;;;;2.37;0.70;;;;;;;19.92;42.08;98529.63;512529;1101;103435;-39
2021/05/27 11:59:23;;;;;;;3.33;1.20;;;;;;;19.58;42.41;98514.56;512491;1101;103116;-41
2021/05/27 12:09:36;;;;;;;2.53;0.70;;;;;;;19.51;41.23;98511.42;512627;1101;103237;-40
2021/05/27 12:19:47;;;;;;;9.23;1.53;;;;;;;20.36;41.85;98512.24;512627;1101;103164;-41
2021/05/27 12:29:51;;;;;;;3.80;1.10;;;;;;;21.05;39.70;98513.05;512516;1101;103215;-42
2021/05/27 12:40:04;;;;;;;0.97;0.90;;;;;;;20.92;39.69;98505.81;512430;1094;103273;-41
2021/05/27 12:50:22;;;;;;;4.37;1.13;;;;;;;20.37;38.69;98516.52;512539;1093;104511;-41
2021/05/27 13:00:27;;;;;;;4.63;1.00;;;;;;;20.20;38.65;98522.44;512700;1101;103484;-42
2021/05/27 13:10:32;;;;;;;1.43;0.70;;;;;;;19.90;38.76;98513.02;512584;1101;103593;-39
2021/05/27 13:20:55;;;;;;;0.80;0.80;;;;;;;19.55;38.56;98507.09;512553;1101;103160;-42
2021/05/27 13:30:59;;;;;;;3.03;0.90;;;;;;;19.54;38.53;98510.08;512524;1093;103160;-42
2021/05/27 13:41:05;;;;;;;0.63;0.60;;;;;;;19.67;38.36;98513.92;512575;1101;103168;-41
2021/05/27 13:51:23;;;;;;;2.53;1.03;;;;;;;19.44;38.43;98512.88;512711;1096;103621;-41
2021/05/27 14:01:27;;;;;;;1.13;0.97;;;;;;;19.37;38.54;98499.02;512581;1093;103436;-43
2021/05/27 14:11:31;;;;;;;3.10;1.30;;;;;;;19.16;38.35;98498.50;512551;1101;103157;-43
2021/05/27 14:21:35;;;;;;;0.65;0.65;;;;;;;19.50;38.39;98500.99;512658;1101;103183;-44
2021/05/27 14:31:42;;;;;;;2.20;0.60;;;;;;;19.68;38.43;98492.17;512888;1101;103122;-41
2021/05/27 14:41:46;;;;;;;1.83;0.90;;;;;;;19.79;39.00;98484.74;512666;1101;103151;-43
2021/05/27 14:51:51;;;;;;;1.03;0.93;;;;;;;19.55;38.52;98488.33;512643;1101;103531;-42
2021/05/27 15:01:56;;;;;;;7.90;0.90;;;;;;;19.22;38.97;98486.64;512908;1101;103522;-41
2021/05/27 15:12:01;;;;;;;1.23;0.90;;;;;;;18.95;39.19;98482.71;512676;1101;103467;-42
2021/05/27 15:22:06;;;;;;;0.83;0.80;;;;;;;18.68;39.37;98477.92;512916;1093;104728;-43
2021/05/27 15:32:10;;;;;;;7.73;1.63;;;;;;;18.86;40.15;98478.27;512687;1101;103155;-42
2021/05/27 15:42:15;;;;;;;5.70;1.60;;;;;;;18.89;40.19;98473.13;512707;1093;103186;-42
2021/05/27 16:02:38;;;;;;;1.80;1.53;;;;;;;18.77;38.98;98482.67;512683;1101;103189;-43
2021/05/27 16:12:44;;;;;;;2.40;1.17;;;;;;;18.28;40.05;98489.07;512706;1101;103192;-41
2021/05/27 16:22:48;;;;;;;3.53;1.10;;;;;;;17.95;40.11;98490.69;512770;1093;103231;-40
2021/05/27 16:32:54;;;;;;;4.57;1.40;;;;;;;18.14;40.74;98491.59;512499;1101;103649;-42
2021/05/27 16:42:58;;;;;;;7.43;1.80;;;;;;;18.11;40.64;98489.48;512567;1101;103185;-41
2021/05/27 16:53:02;;;;;;;2.93;1.60;;;;;;;18.19;40.63;98496.89;512423;1100;103181;-42
2021/05/27 17:03:09;;;;;;;3.47;1.10;;;;;;;17.92;40.39;98497.41;512510;1101;103186;-42
2021/05/27 17:13:13;;;;;;;1.70;1.15;;;;;;;17.68;40.77;98516.05;512628;1101;103256;-42
2021/05/27 17:23:17;;;;;;;2.80;1.73;;;;;;;17.39;40.69;98507.13;512519;1101;104256;-41
2021/05/27 17:33:22;;;;;;;4.73;1.80;;;;;;;17.10;41.13;98502.47;512491;1093;103164;-42
2021/05/27 17:43:26;;;;;;;11.93;4.00;;;;;;;16.82;41.87;98519.16;512308;1093;103205;-42
2021/05/27 17:53:30;;;;;;;4.47;2.33;;;;;;;16.60;42.14;98522.13;512498;1093;103462;-43
2021/05/27 18:03:36;;;;;;;12.87;2.87;;;;;;;16.31;42.62;98529.91;512477;1101;103234;-42
2021/05/27 18:13:40;;;;;;;11.63;6.93;;;;;;;16.03;43.09;98546.47;512524;1101;103163;-43
2021/05/27 18:23:44;;;;;;;8.27;4.70;;;;;;;15.69;43.57;98554.98;512612;1093;103468;-44
2021/05/27 18:33:51;;;;;;;12.97;4.40;;;;;;;15.21;44.58;98548.98;512442;1101;103545;-43
2021/05/27 18:43:56;;;;;;;7.13;3.43;;;;;;;14.51;45.35;98558.22;512751;1101;103534;-43
2021/05/27 18:54:00;;;;;;;8.23;3.83;;;;;;;13.99;46.28;98569.51;512359;1093;103163;-45
2021/05/27 19:04:07;;;;;;;8.75;3.90;;;;;;;13.56;47.30;98582.91;512818;1100;103189;-42
2021/05/27 19:14:11;;;;;;;7.60;3.85;;;;;;;13.19;48.40;98588.85;512590;1101;103571;-42
2021/05/27 19:24:16;;;;;;;8.10;4.10;;;;;;;12.75;49.59;98588.78;512691;1101;103206;-42
2021/05/27 19:34:20;;;;;;;13.15;6.70;;;;;;;12.44;49.69;98610.61;512629;1101;104635;-42
2021/05/27 19:44:24;;;;;;;33.30;8.43;;;;;;;12.39;50.12;98631.75;512639;1101;104288;-43
2021/05/27 19:54:28;;;;;;;9.27;5.90;;;;;;;12.48;50.24;98640.90;512552;1100;103190;-43
2021/05/27 20:04:33;;;;;;;7.03;5.00;;;;;;;12.59;49.97;98645.33;512876;1101;103158;-42
2021/05/27 20:14:37;;;;;;;10.70;5.50;;;;;;;12.34;50.30;98651.04;512580;1101;103160;-43
2021/05/27 20:36:45;;;;;;;11.80;7.13;;;;;;;11.58;52.13;98682.20;512597;1101;103484;-44
2021/05/27 20:46:48;;;;;;;9.23;6.07;;;;;;;11.29;53.38;98677.89;512534;1101;103163;-41
2021/05/27 20:56:52;;;;;;;7.00;4.87;;;;;;;11.17;53.99;98683.22;512624;1101;103163;-43
2021/05/27 21:06:59;;;;;;;13.50;4.70;;;;;;;11.04;54.49;98683.45;512678;1101;103160;-43
2021/05/27 21:17:04;;;;;;;15.53;6.13;;;;;;;10.99;55.63;98684.14;512782;1101;103457;-43
2021/05/27 21:27:08;;;;;;;12.53;6.27;;;;;;;10.53;55.72;98690.20;512554;1101;103647;-43
2021/05/27 21:37:12;;;;;;;18.53;7.30;;;;;;;10.13;56.40;98693.41;512494;1101;103266;-43
2021/05/27 21:47:16;;;;;;;20.47;10.37;;;;;;;9.97;57.73;98709.09;512513;1101;103183;-42
2021/05/27 21:57:20;;;;;;;19.10;9.50;;;;;;;10.02;58.35;98717.95;512712;1096;103117;-41
2021/05/27 22:07:25;;;;;;;14.87;6.40;;;;;;;9.95;58.90;98711.16;512774;1093;103171;-42
2021/05/27 22:17:33;;;;;;;12.37;6.57;;;;;;;9.93;59.48;98713.99;512597;1101;103220;-42
2021/05/27 22:27:37;;;;;;;16.13;7.10;;;;;;;9.68;59.43;98719.38;512541;1101;103167;-43
2021/05/27 22:37:41;;;;;;;10.77;6.13;;;;;;;9.49;59.76;98720.44;512408;1101;103168;-42
2021/05/27 22:47:45;;;;;;;11.00;6.27;;;;;;;9.12;60.34;98719.59;512560;1101;103158;-42
2021/05/27 22:57:49;;;;;;;15.90;6.80;;;;;;;9.08;61.01;98726.34;512517;1101;103490;-43
2021/05/27 23:07:53;;;;;;;19.60;9.80;;;;;;;9.07;61.49;98728.17;512540;1093;104520;-42
2021/05/27 23:17:58;;;;;;;19.27;10.43;;;;;;;9.09;61.89;98727.95;512504;1101;103768;-42
2021/05/27 23:28:02;;;;;;;12.47;8.67;;;;;;;9.07;62.35;98724.72;512479;1093;103560;-42
2021/05/27 23:38:07;;;;;;;16.30;9.00;;;;;;;9.06;62.61;98729.20;512460;1101;103545;-43
2021/05/27 23:48:10;;;;;;;18.10;7.93;;;;;;;9.09;63.13;98726.12;512496;1093;103522;-42
2021/05/27 23:58:14;;;;;;;11.43;7.53;;;;;;;9.13;62.99;98737.84;512549;1093;103237;-42
